Time;durP1;ratioP1;P1;durP2;ratioP2;P2;SDS_P1;SDS_P2;PMS_P1;PMS_P2;Temp;Humidity;BMP_temperature;BMP_pressure;BME280_temperature;BME280_humidity;BME280_pressure;Samples;Min_cycle;Max_cycle;Signal;HPM_P1;HPM_P2
2021/10/30 00:00:26;;;;;;;9.50;7.90;;;11.50;98.30;;;;;;5226348;22;20451;-82
2021/10/30 00:02:29;;;;;;;11.63;8.63;;;11.50;98.30;;;;;;5219112;22;20437;-82
2021/10/30 00:04:32;;;;;;;11.77;8.97;;;11.50;98.30;;;;;;5227632;22;20446;-82
2021/10/30 00:06:35;;;;;;;9.93;7.90;;;11.50;98.30;;;;;;5219296;22;20427;-83
2021/10/30 00:08:38;;;;;;;9.60;8.20;;;11.50;98.30;;;;;;5224287;22;20821;-82
2021/10/30 00:10:42;;;;;;;10.30;8.97;;;11.60;98.30;;;;;;5217394;22;20438;-82
2021/10/30 00:12:45;;;;;;;11.03;9.33;;;11.60;98.30;;;;;;5218421;22;20503;-82
2021/10/30 00:14:48;;;;;;;11.43;10.27;;;11.60;98.30;;;;;;5217818;22;20440;-82
2021/10/30 00:16:52;;;;;;;13.70;8.80;;;11.60;98.30;;;;;;5225822;22;20538;-82
2021/10/30 00:19:01;;;;;;;12.90;8.23;;;11.50;98.30;;;;;;5226104;22;20463;-82
2021/10/30 00:21:04;;;;;;;12.60;8.40;;;11.50;98.30;;;;;;5218514;22;20436;-82
2021/10/30 00:23:32;;;;;;;10.70;8.20;;;11.60;98.30;;;;;;5217420;22;20740;-82
2021/10/30 00:26:00;;;;;;;11.97;8.90;;;11.50;98.30;;;;;;5217527;22;20490;-82
2021/10/30 00:28:26;;;;;;;9.47;8.40;;;11.50;98.30;;;;;;5226020;22;20406;-82
2021/10/30 00:30:33;;;;;;;9.73;7.87;;;11.50;98.30;;;;;;5217557;22;20789;-82
2021/10/30 00:32:36;;;;;;;9.47;8.30;;;11.60;98.30;;;;;;5217965;22;20422;-81
2021/10/30 00:34:40;;;;;;;10.50;8.33;;;11.60;98.30;;;;;;5218085;22;20469;-82
2021/10/30 00:36:43;;;;;;;12.23;8.30;;;11.60;98.30;;;;;;5217971;22;20419;-81
2021/10/30 00:38:50;;;;;;;11.87;8.70;;;11.60;98.30;;;;;;5226808;22;20905;-81
2021/10/30 00:40:53;;;;;;;11.40;7.60;;;11.60;98.30;;;;;;5226504;22;20484;-82
2021/10/30 00:42:58;;;;;;;10.23;8.23;;;11.60;98.30;;;;;;5222854;22;20431;-82
2021/10/30 00:45:25;;;;;;;10.37;8.90;;;11.60;98.30;;;;;;5231433;22;20465;-82
2021/10/30 00:47:52;;;;;;;11.30;9.50;;;11.70;98.30;;;;;;5221168;22;20502;-82
2021/10/30 00:50:19;;;;;;;9.93;8.77;;;11.70;98.30;;;;;;5222375;22;20931;-82
2021/10/30 00:52:46;;;;;;;9.60;8.07;;;11.70;98.30;;;;;;5223174;22;20414;-83
2021/10/30 00:54:49;;;;;;;13.40;7.70;;;11.60;98.30;;;;;;5231195;22;20446;-82
2021/10/30 00:57:19;;;;;;;9.90;8.63;;;11.60;98.30;;;;;;5228017;22;20477;-83
2021/10/30 01:00:12;;;;;;;9.43;8.30;;;11.60;98.30;;;;;;5227405;22;20749;-82
2021/10/30 01:02:23;;;;;;;10.57;8.17;;;11.60;98.30;;;;;;5227357;22;20420;-83
2021/10/30 01:04:27;;;;;;;8.93;8.00;;;11.60;98.30;;;;;;5226732;22;20517;-82
2021/10/30 01:06:31;;;;;;;10.93;8.67;;;11.50;98.30;;;;;;5227046;22;20424;-82
2021/10/30 01:08:35;;;;;;;11.30;8.57;;;11.50;98.30;;;;;;5217912;22;20427;-81
2021/10/30 01:10:38;;;;;;;10.77;8.10;;;11.50;98.30;;;;;;5225972;22;20492;-81
2021/10/30 01:12:42;;;;;;;10.73;8.23;;;11.50;98.30;;;;;;5221839;22;20487;-81
2021/10/30 01:14:46;;;;;;;14.00;8.03;;;11.50;98.30;;;;;;5225498;22;20435;-81
2021/10/30 01:16:49;;;;;;;12.67;8.60;;;11.50;98.30;;;;;;5225658;22;20421;-81
2021/10/30 01:18:53;;;;;;;12.20;8.40;;;11.40;98.30;;;;;;5217308;22;20431;-81
2021/10/30 01:20:57;;;;;;;9.40;7.67;;;11.50;98.30;;;;;;5217246;22;20426;-81
2021/10/30 01:23:03;;;;;;;11.07;8.20;;;11.50;98.30;;;;;;5217292;22;20430;-82
2021/10/30 01:25:06;;;;;;;9.27;8.27;;;11.40;98.30;;;;;;5217740;22;20533;-83
2021/10/30 01:27:09;;;;;;;10.20;8.60;;;11.40;98.30;;;;;;5217291;22;20921;-83
2021/10/30 01:29:12;;;;;;;11.03;8.67;;;11.40;98.30;;;;;;5226205;22;20900;-82
2021/10/30 01:31:15;;;;;;;11.13;9.37;;;11.40;98.30;;;;;;5226305;22;20501;-83
2021/10/30 01:33:18;;;;;;;11.03;7.80;;;11.40;98.30;;;;;;5217280;22;21088;-83
2021/10/30 01:35:30;;;;;;;11.30;8.30;;;11.40;98.30;;;;;;5225824;22;20942;-83
2021/10/30 01:37:38;;;;;;;10.07;8.17;;;11.40;98.30;;;;;;5225296;22;20415;-83
2021/10/30 01:39:41;;;;;;;10.33;8.10;;;11.40;98.30;;;;;;5217718;22;20512;-82
2021/10/30 01:41:44;;;;;;;9.63;8.60;;;11.40;98.30;;;;;;5217670;22;20427;-83
2021/10/30 01:43:47;;;;;;;10.67;8.60;;;11.40;98.30;;;;;;5225527;22;20419;-83
2021/10/30 01:45:50;;;;;;;10.97;8.00;;;11.30;98.30;;;;;;5217579;22;21140;-82
2021/10/30 01:47:54;;;;;;;11.43;8.03;;;11.30;98.30;;;;;;5225898;22;20499;-83
2021/10/30 01:49:57;;;;;;;12.17;8.57;;;11.30;98.30;;;;;;5217901;22;20427;-82
2021/10/30 01:51:59;;;;;;;15.40;9.30;;;11.30;98.30;;;;;;5218411;22;21086;-82
2021/10/30 01:54:04;;;;;;;10.63;9.53;;;11.30;98.30;;;;;;5217558;22;20449;-83
2021/10/30 01:56:07;;;;;;;15.67;9.60;;;11.20;98.30;;;;;;5225869;22;20437;-82
2021/10/30 01:58:10;;;;;;;11.37;8.23;;;11.30;98.30;;;;;;5225647;22;20525;-82
2021/10/30 02:00:14;;;;;;;11.27;8.10;;;11.30;98.30;;;;;;5226279;22;20430;-82
2021/10/30 02:02:17;;;;;;;12.40;8.37;;;11.30;98.30;;;;;;5217975;22;20423;-82
2021/10/30 02:04:20;;;;;;;9.55;8.55;;;11.30;98.30;;;;;;5218034;22;20427;-83
2021/10/30 02:06:23;;;;;;;10.07;7.90;;;11.30;98.30;;;;;;5225482;22;20419;-83
2021/10/30 02:08:26;;;;;;;9.83;7.27;;;11.40;98.30;;;;;;5217393;22;20905;-83
2021/10/30 02:10:31;;;;;;;12.07;7.40;;;11.30;98.30;;;;;;5218652;22;20426;-83
2021/10/30 02:12:34;;;;;;;10.73;7.60;;;11.40;98.30;;;;;;5227148;22;20761;-83
2021/10/30 02:14:37;;;;;;;8.53;7.63;;;11.40;98.30;;;;;;5222932;22;20427;-82
2021/10/30 02:16:40;;;;;;;11.03;8.77;;;11.40;98.30;;;;;;5217786;22;20754;-82
2021/10/30 02:18:44;;;;;;;12.17;9.47;;;11.30;98.30;;;;;;5225856;22;20430;-82
2021/10/30 02:20:47;;;;;;;10.10;7.73;;;11.30;98.30;;;;;;5226006;22;20418;-82
2021/10/30 02:22:53;;;;;;;8.73;7.07;;;11.30;98.30;;;;;;5217244;22;20434;-82
2021/10/30 02:24:55;;;;;;;11.90;9.00;;;11.30;98.30;;;;;;5217459;22;20453;-82
2021/10/30 02:27:00;;;;;;;11.87;8.57;;;11.20;98.30;;;;;;5225345;22;20414;-82
2021/10/30 02:29:03;;;;;;;8.73;7.83;;;11.20;98.30;;;;;;5217203;22;20423;-82
2021/10/30 02:31:06;;;;;;;11.37;8.07;;;11.20;98.30;;;;;;5225620;22;20426;-82
2021/10/30 02:33:09;;;;;;;9.53;7.60;;;11.10;98.30;;;;;;5217395;22;20427;-83
2021/10/30 02:35:13;;;;;;;10.50;8.27;;;11.10;98.30;;;;;;5217714;22;20449;-82
2021/10/30 02:37:16;;;;;;;10.60;8.40;;;11.10;98.30;;;;;;5218754;22;20431;-82
2021/10/30 02:39:19;;;;;;;12.17;7.50;;;11.10;98.30;;;;;;5219051;22;20427;-82
2021/10/30 02:41:21;;;;;;;9.07;8.13;;;11.10;98.30;;;;;;5218820;22;20426;-82
2021/10/30 02:43:26;;;;;;;8.70;7.60;;;11.10;98.30;;;;;;5226941;22;20432;-83
2021/10/30 02:45:29;;;;;;;12.37;9.13;;;11.10;98.30;;;;;;5218811;22;20951;-83
2021/10/30 02:47:32;;;;;;;10.77;8.03;;;11.10;98.30;;;;;;5226264;22;20420;-83
2021/10/30 02:49:35;;;;;;;11.53;8.20;;;11.10;98.30;;;;;;5218812;22;20828;-82
2021/10/30 02:51:38;;;;;;;9.87;7.70;;;11.10;98.30;;;;;;5219248;22;20434;-83
2021/10/30 02:53:41;;;;;;;10.50;7.40;;;11.10;98.30;;;;;;5227208;22;20791;-82
2021/10/30 02:55:44;;;;;;;11.20;8.03;;;11.00;98.30;;;;;;5227145;22;20444;-83
2021/10/30 02:57:48;;;;;;;11.20;7.87;;;10.90;98.30;;;;;;5226848;22;20421;-82
2021/10/30 02:59:54;;;;;;;10.70;7.83;;;10.90;98.30;;;;;;5227441;22;20510;-82
2021/10/30 03:01:56;;;;;;;10.20;8.23;;;10.90;98.30;;;;;;5218135;22;20416;-83
2021/10/30 03:04:00;;;;;;;8.53;7.60;;;10.90;98.30;;;;;;5218995;22;21170;-83
2021/10/30 03:06:03;;;;;;;12.23;7.20;;;10.90;98.30;;;;;;5218915;22;20929;-83
2021/10/30 03:08:06;;;;;;;10.77;7.63;;;10.90;98.30;;;;;;5218526;22;20466;-83
2021/10/30 03:10:10;;;;;;;8.77;7.83;;;10.80;98.30;;;;;;5226831;22;20430;-83
2021/10/30 03:12:12;;;;;;;9.43;7.50;;;10.80;98.30;;;;;;5227278;22;20419;-82
2021/10/30 03:14:16;;;;;;;12.67;9.50;;;10.80;98.30;;;;;;5219190;22;20426;-82
2021/10/30 03:16:21;;;;;;;10.33;8.20;;;10.80;98.30;;;;;;5218922;22;20446;-82
2021/10/30 03:18:24;;;;;;;10.27;8.57;;;10.70;98.30;;;;;;5227932;22;20495;-83
2021/10/30 03:20:27;;;;;;;11.50;7.53;;;10.70;98.30;;;;;;5223691;22;20441;-83
2021/10/30 03:22:30;;;;;;;9.60;8.60;;;10.70;98.30;;;;;;5218850;22;20451;-82
2021/10/30 03:24:33;;;;;;;8.93;7.63;;;10.60;98.30;;;;;;5227188;22;20419;-82
2021/10/30 03:26:36;;;;;;;9.73;8.30;;;10.70;98.30;;;;;;5226875;22;20449;-83
2021/10/30 03:28:39;;;;;;;9.47;7.87;;;10.70;98.30;;;;;;5226985;22;20974;-82
2021/10/30 03:30:43;;;;;;;13.70;8.40;;;10.70;98.30;;;;;;5218790;22;20505;-82
2021/10/30 03:32:47;;;;;;;12.10;7.90;;;10.70;98.30;;;;;;5218640;22;20509;-82
2021/10/30 03:34:50;;;;;;;9.43;8.43;;;10.60;98.30;;;;;;5226880;22;20430;-82
2021/10/30 03:36:53;;;;;;;10.20;8.50;;;10.60;98.30;;;;;;5218062;22;20426;-82
2021/10/30 03:38:56;;;;;;;10.20;8.50;;;10.60;98.30;;;;;;5218190;22;20422;-83
2021/10/30 03:40:59;;;;;;;9.60;8.60;;;10.60;98.30;;;;;;5226398;22;20416;-82
2021/10/30 03:43:03;;;;;;;9.80;8.40;;;10.50;98.30;;;;;;5217920;22;20507;-83
2021/10/30 03:45:07;;;;;;;9.37;8.07;;;10.50;98.30;;;;;;5218441;22;20454;-82
2021/10/30 03:47:10;;;;;;;10.67;8.30;;;10.50;98.30;;;;;;5226546;22;20523;-81
2021/10/30 03:49:15;;;;;;;13.30;9.00;;;10.50;98.30;;;;;;5226791;22;20427;-83
2021/10/30 03:51:17;;;;;;;12.93;8.10;;;10.50;98.30;;;;;;5218640;22;20754;-82
2021/10/30 03:53:21;;;;;;;12.70;8.07;;;10.50;98.30;;;;;;5218486;22;20434;-82
2021/10/30 03:55:24;;;;;;;8.83;7.90;;;10.40;98.30;;;;;;5217889;22;20453;-82
2021/10/30 03:57:27;;;;;;;8.53;7.63;;;10.50;98.30;;;;;;5226487;22;20933;-83
2021/10/30 03:59:30;;;;;;;10.00;8.80;;;10.40;98.30;;;;;;5226856;22;20432;-83
2021/10/30 04:01:33;;;;;;;9.47;7.90;;;10.50;98.30;;;;;;5218004;22;20434;-82
2021/10/30 04:03:36;;;;;;;9.87;8.30;;;10.50;98.30;;;;;;5218844;22;20427;-82
2021/10/30 04:05:41;;;;;;;10.33;8.50;;;10.50;98.30;;;;;;5218211;22;20442;-83
2021/10/30 04:07:44;;;;;;;13.57;8.60;;;10.50;98.30;;;;;;5227480;22;20750;-83
2021/10/30 04:09:47;;;;;;;12.07;8.43;;;10.50;98.30;;;;;;5227316;22;20525;-83
2021/10/30 04:11:50;;;;;;;10.27;7.50;;;10.50;98.30;;;;;;5227761;22;20446;-83
2021/10/30 04:13:53;;;;;;;11.43;8.60;;;10.50;98.30;;;;;;5219074;22;20517;-83
2021/10/30 04:15:56;;;;;;;10.13;8.40;;;10.50;98.30;;;;;;5218610;22;20774;-83
2021/10/30 04:17:59;;;;;;;10.47;7.93;;;10.50;98.30;;;;;;5217784;22;20737;-83
2021/10/30 04:20:02;;;;;;;14.97;9.87;;;10.40;98.30;;;;;;5218747;22;20423;-83
2021/10/30 04:22:07;;;;;;;12.07;9.10;;;10.40;98.30;;;;;;5227888;22;20494;-84
2021/10/30 04:24:10;;;;;;;9.40;7.67;;;10.50;98.30;;;;;;5227669;22;20533;-82
2021/10/30 04:26:13;;;;;;;10.30;8.60;;;10.50;98.30;;;;;;5224206;22;20477;-84
2021/10/30 04:28:17;;;;;;;9.57;7.77;;;10.50;98.30;;;;;;5218217;22;20514;-83
2021/10/30 04:30:20;;;;;;;8.73;7.53;;;10.40;98.30;;;;;;5218547;22;20517;-83
2021/10/30 04:32:23;;;;;;;9.30;7.40;;;10.30;98.30;;;;;;5226597;22;20425;-84
2021/10/30 04:34:40;;;;;;;9.80;8.73;;;10.40;98.30;;;;;;5219281;22;20430;-82
2021/10/30 04:36:43;;;;;;;9.17;7.53;;;10.30;98.30;;;;;;5226162;22;20413;-84
2021/10/30 04:38:48;;;;;;;11.80;9.20;;;10.30;98.30;;;;;;5228126;22;20892;-83
2021/10/30 04:40:51;;;;;;;10.83;8.77;;;10.30;98.30;;;;;;5219211;22;20430;-83
2021/10/30 04:42:54;;;;;;;15.77;8.40;;;10.20;98.30;;;;;;5218178;22;20525;-83
2021/10/30 04:44:57;;;;;;;12.00;8.17;;;10.20;98.30;;;;;;5218300;22;20966;-83
2021/10/30 04:47:00;;;;;;;12.83;8.20;;;10.20;98.30;;;;;;5217542;22;20829;-82
2021/10/30 04:49:03;;;;;;;10.27;8.20;;;10.20;98.30;;;;;;5226720;22;20418;-83
2021/10/30 04:51:07;;;;;;;11.13;8.00;;;10.20;98.30;;;;;;5218254;22;20426;-83
2021/10/30 04:53:10;;;;;;;10.00;8.00;;;10.30;98.30;;;;;;5219372;22;20434;-82
2021/10/30 04:55:14;;;;;;;9.17;8.10;;;10.30;98.30;;;;;;5218856;22;20496;-83
2021/10/30 04:57:17;;;;;;;10.50;8.70;;;10.20;98.30;;;;;;5218821;22;20415;-83
2021/10/30 04:59:20;;;;;;;9.90;8.10;;;10.20;98.30;;;;;;5219111;22;20505;-83
2021/10/30 05:01:22;;;;;;;14.77;8.27;;;10.10;98.30;;;;;;5218439;22;20509;-82
2021/10/30 05:03:26;;;;;;;10.47;8.07;;;10.10;98.30;;;;;;5218090;22;20425;-83
2021/10/30 05:05:29;;;;;;;9.27;8.37;;;10.10;98.30;;;;;;5226989;22;20465;-83
2021/10/30 05:07:32;;;;;;;11.13;8.67;;;10.10;98.30;;;;;;5216990;22;20446;-83
2021/10/30 05:09:35;;;;;;;9.87;7.70;;;10.10;98.30;;;;;;5227034;22;20483;-83
2021/10/30 05:11:39;;;;;;;10.60;8.90;;;10.10;98.30;;;;;;5218567;22;20549;-83
2021/10/30 05:13:42;;;;;;;9.30;8.27;;;10.00;98.30;;;;;;5227607;22;20425;-82
2021/10/30 05:15:45;;;;;;;10.57;8.27;;;10.00;98.30;;;;;;5218472;22;20452;-83
2021/10/30 05:17:48;;;;;;;9.00;8.10;;;9.90;98.30;;;;;;5216950;22;20426;-82
2021/10/30 05:19:51;;;;;;;10.70;9.47;;;10.00;98.30;;;;;;5217625;22;20734;-83
2021/10/30 05:21:55;;;;;;;12.10;8.67;;;10.00;98.30;;;;;;5227866;22;20480;-83
2021/10/30 05:23:58;;;;;;;9.70;7.93;;;10.00;98.30;;;;;;5217504;22;20422;-83
2021/10/30 05:26:01;;;;;;;8.57;7.50;;;10.00;98.30;;;;;;5225903;22;20948;-82
2021/10/30 05:28:06;;;;;;;9.57;8.57;;;10.00;98.30;;;;;;5226850;22;20524;-82
2021/10/30 05:30:09;;;;;;;10.53;8.10;;;10.10;98.30;;;;;;5231034;22;20426;-82
2021/10/30 05:32:12;;;;;;;10.83;8.57;;;10.00;98.30;;;;;;5219228;22;20429;-83
2021/10/30 05:34:15;;;;;;;10.40;8.20;;;9.90;98.30;;;;;;5217870;22;20509;-82
2021/10/30 05:36:20;;;;;;;11.27;8.70;;;10.00;98.30;;;;;;5217768;22;20446;-83
2021/10/30 05:38:23;;;;;;;10.57;7.97;;;10.10;98.30;;;;;;5225813;22;20461;-83
2021/10/30 05:40:26;;;;;;;9.70;8.10;;;9.90;98.30;;;;;;5218183;22;20456;-82
2021/10/30 05:42:30;;;;;;;9.97;8.63;;;9.90;98.30;;;;;;5226384;22;20982;-83
2021/10/30 05:44:35;;;;;;;13.33;8.13;;;9.90;98.30;;;;;;5218642;22;20532;-82
2021/10/30 05:46:38;;;;;;;11.73;8.97;;;9.90;98.30;;;;;;5227589;22;20424;-82
2021/10/30 05:48:41;;;;;;;9.73;8.13;;;9.90;98.30;;;;;;5219750;22;20436;-83
2021/10/30 05:50:47;;;;;;;9.60;8.70;;;9.90;98.30;;;;;;5218276;22;20439;-83
2021/10/30 05:52:50;;;;;;;11.87;9.40;;;10.00;98.30;;;;;;5226719;22;20789;-83
2021/10/30 05:54:53;;;;;;;10.70;8.80;;;9.90;98.30;;;;;;5218418;22;20446;-83
2021/10/30 05:56:56;;;;;;;9.37;7.53;;;9.90;98.30;;;;;;5226219;22;20442;-83
2021/10/30 05:58:59;;;;;;;13.30;9.20;;;9.90;98.30;;;;;;5217984;22;20513;-83
2021/10/30 06:01:03;;;;;;;9.97;8.40;;;9.80;98.30;;;;;;5217637;22;20422;-83
2021/10/30 06:03:07;;;;;;;10.83;9.50;;;9.80;98.30;;;;;;5218237;22;20429;-83
2021/10/30 06:05:10;;;;;;;12.13;9.80;;;9.90;98.30;;;;;;5219010;22;20474;-83
2021/10/30 06:07:13;;;;;;;13.10;8.53;;;9.90;98.30;;;;;;5217941;22;20963;-83
2021/10/30 06:09:17;;;;;;;11.87;8.93;;;9.90;98.30;;;;;;5219700;22;20432;-83
2021/10/30 06:11:20;;;;;;;10.93;9.33;;;9.90;98.30;;;;;;5220788;22;20433;-83
2021/10/30 06:13:23;;;;;;;13.30;9.87;;;9.80;98.30;;;;;;5220137;22;20432;-82
2021/10/30 06:15:26;;;;;;;13.33;9.10;;;9.90;98.30;;;;;;5220148;22;20488;-83
2021/10/30 06:17:31;;;;;;;11.60;10.10;;;9.90;98.30;;;;;;5228008;22;20422;-83
2021/10/30 06:19:34;;;;;;;12.63;9.13;;;9.80;98.30;;;;;;5220025;22;20438;-83
2021/10/30 06:21:36;;;;;;;11.27;9.23;;;9.90;98.30;;;;;;5220688;22;20428;-83
2021/10/30 06:23:39;;;;;;;11.60;9.23;;;9.90;98.30;;;;;;5220414;22;21017;-83
2021/10/30 06:25:43;;;;;;;12.70;9.03;;;9.80;98.30;;;;;;5229922;22;20974;-82
2021/10/30 06:27:46;;;;;;;12.53;8.77;;;9.90;98.30;;;;;;5220601;22;20442;-82
2021/10/30 06:29:49;;;;;;;13.17;9.93;;;9.90;98.30;;;;;;5229221;22;20427;-83
2021/10/30 06:31:52;;;;;;;13.70;9.50;;;9.90;98.30;;;;;;5220626;22;20510;-84
2021/10/30 06:33:56;;;;;;;11.40;9.80;;;9.90;98.30;;;;;;5225328;22;20449;-82
2021/10/30 06:35:59;;;;;;;13.33;10.10;;;9.90;98.30;;;;;;5221004;22;20470;-83
2021/10/30 06:38:02;;;;;;;13.30;9.73;;;10.00;98.30;;;;;;5221212;22;20827;-83
2021/10/30 06:40:07;;;;;;;14.43;11.17;;;10.20;98.30;;;;;;5221390;22;20485;-83
2021/10/30 06:42:10;;;;;;;13.37;10.77;;;10.20;98.30;;;;;;5221017;22;20432;-83
2021/10/30 06:44:13;;;;;;;12.00;9.23;;;10.20;98.30;;;;;;5222138;22;20494;-83
2021/10/30 06:46:16;;;;;;;11.40;9.80;;;10.20;98.30;;;;;;5229514;22;20476;-83
2021/10/30 06:48:19;;;;;;;9.80;8.73;;;10.40;98.30;;;;;;5221040;22;20453;-83
2021/10/30 06:50:23;;;;;;;13.70;9.80;;;10.50;98.30;;;;;;5229517;22;20416;-83
2021/10/30 06:52:31;;;;;;;14.20;9.43;;;10.50;98.30;;;;;;5219935;22;20433;-83
2021/10/30 06:54:34;;;;;;;11.80;9.07;;;10.50;98.30;;;;;;5219320;22;20424;-82
2021/10/30 06:56:39;;;;;;;11.90;9.23;;;10.50;98.30;;;;;;5219713;22;20422;-82
2021/10/30 06:58:42;;;;;;;12.53;10.27;;;10.40;98.30;;;;;;5229612;22;20895;-83
2021/10/30 07:00:45;;;;;;;13.10;10.10;;;10.30;98.30;;;;;;5220187;22;20431;-83
2021/10/30 07:02:51;;;;;;;13.70;9.77;;;10.40;98.30;;;;;;5219639;22;20434;-82
2021/10/30 07:04:55;;;;;;;14.00;11.33;;;10.50;98.30;;;;;;5219855;22;20450;-83
2021/10/30 07:06:59;;;;;;;11.30;9.70;;;10.50;98.30;;;;;;5229458;22;20416;-82
2021/10/30 07:09:02;;;;;;;12.90;9.80;;;10.50;98.30;;;;;;5220851;22;20575;-84
2021/10/30 07:11:05;;;;;;;11.33;9.20;;;10.50;98.30;;;;;;5228350;22;20428;-82
2021/10/30 07:13:08;;;;;;;14.90;9.87;;;10.50;98.30;;;;;;5220588;22;20427;-82
2021/10/30 07:15:12;;;;;;;13.30;10.20;;;10.50;98.30;;;;;;5220946;22;20450;-82
2021/10/30 07:17:15;;;;;;;11.07;9.33;;;10.50;98.30;;;;;;5228570;22;20419;-82
2021/10/30 07:19:18;;;;;;;13.50;11.23;;;10.60;98.30;;;;;;5220549;22;20904;-83
2021/10/30 07:21:22;;;;;;;11.93;9.43;;;10.50;98.30;;;;;;5228121;22;20448;-83
2021/10/30 07:23:26;;;;;;;12.17;10.10;;;10.60;98.30;;;;;;5220087;22;20430;-82
2021/10/30 07:25:29;;;;;;;12.50;10.40;;;10.60;98.30;;;;;;5220076;22;20549;-83
2021/10/30 07:27:32;;;;;;;12.23;10.87;;;10.60;98.30;;;;;;5220200;22;20471;-83
2021/10/30 07:29:48;;;;;;;11.17;9.73;;;10.60;98.30;;;;;;5221509;22;20450;-81
2021/10/30 07:31:51;;;;;;;13.00;10.53;;;10.70;98.30;;;;;;5228438;22;20403;-83
2021/10/30 07:33:54;;;;;;;11.40;9.67;;;10.60;98.30;;;;;;5219957;22;20451;-83
2021/10/30 07:35:57;;;;;;;12.63;9.90;;;10.60;98.30;;;;;;5228954;22;20770;-82
2021/10/30 07:38:03;;;;;;;12.00;9.60;;;10.70;98.30;;;;;;5228039;22;21046;-84
2021/10/30 07:40:09;;;;;;;15.43;10.60;;;10.80;98.30;;;;;;5228764;22;20423;-84
2021/10/30 07:42:12;;;;;;;12.17;8.80;;;10.80;98.30;;;;;;5220227;22;20439;-84
2021/10/30 07:44:22;;;;;;;15.43;10.83;;;10.90;98.30;;;;;;5219757;22;20441;-82
2021/10/30 07:46:25;;;;;;;12.93;9.93;;;11.00;98.30;;;;;;5219512;22;20430;-83
2021/10/30 07:48:28;;;;;;;14.40;9.53;;;11.10;98.30;;;;;;5227182;22;20522;-84
2021/10/30 07:50:31;;;;;;;10.80;9.57;;;11.30;98.30;;;;;;5226172;22;20500;-82
2021/10/30 07:52:35;;;;;;;12.90;8.97;;;11.40;98.30;;;;;;5226381;22;20417;-83
2021/10/30 07:54:38;;;;;;;11.87;10.50;;;11.50;98.30;;;;;;5218267;22;20517;-84
2021/10/30 07:56:43;;;;;;;13.10;10.20;;;11.60;98.30;;;;;;5231848;22;20424;-84
2021/10/30 07:58:46;;;;;;;11.03;9.00;;;11.80;98.30;;;;;;5217851;22;20423;-84
2021/10/30 08:00:49;;;;;;;12.50;9.50;;;11.80;98.30;;;;;;5225662;22;20431;-85
2021/10/30 08:02:53;;;;;;;14.17;10.60;;;11.90;98.30;;;;;;5219102;22;20461;-84
2021/10/30 08:04:56;;;;;;;14.03;9.50;;;11.90;98.30;;;;;;5218902;22;20533;-84
2021/10/30 08:06:59;;;;;;;11.43;9.50;;;11.90;98.30;;;;;;5226387;22;20429;-85
2021/10/30 08:09:02;;;;;;;12.83;10.90;;;12.00;98.30;;;;;;5217019;22;20449;-82
2021/10/30 08:11:05;;;;;;;16.53;10.60;;;12.00;98.30;;;;;;5217421;22;20433;-84
2021/10/30 08:13:11;;;;;;;11.07;9.53;;;12.00;98.30;;;;;;5217056;22;20427;-84
2021/10/30 08:15:14;;;;;;;15.23;10.30;;;12.20;98.30;;;;;;5216514;22;20539;-85
2021/10/30 08:17:17;;;;;;;12.23;9.90;;;12.40;98.30;;;;;;5224909;22;20414;-85
2021/10/30 08:19:20;;;;;;;11.90;9.83;;;12.40;98.30;;;;;;5224996;22;20445;-84
2021/10/30 08:21:23;;;;;;;12.27;8.63;;;12.60;98.30;;;;;;5225746;22;20451;-84
2021/10/30 08:23:26;;;;;;;12.20;8.77;;;12.60;98.30;;;;;;5226179;22;20506;-85
2021/10/30 08:25:29;;;;;;;10.03;8.90;;;12.80;98.30;;;;;;5225666;22;20435;-85
2021/10/30 08:27:32;;;;;;;10.03;9.07;;;12.90;98.30;;;;;;5225441;22;20457;-84
2021/10/30 08:29:36;;;;;;;11.53;8.50;;;13.10;98.30;;;;;;5225573;22;20444;-84
2021/10/30 08:31:40;;;;;;;11.30;9.10;;;13.30;98.30;;;;;;5225965;22;20478;-84
2021/10/30 08:33:43;;;;;;;11.80;8.57;;;13.40;98.30;;;;;;5226035;22;20418;-84
2021/10/30 08:35:46;;;;;;;12.77;9.30;;;13.40;98.30;;;;;;5216934;22;20509;-84
2021/10/30 08:37:50;;;;;;;10.17;8.70;;;13.60;98.30;;;;;;5218526;22;20508;-84
2021/10/30 08:39:53;;;;;;;12.23;8.93;;;13.70;98.30;;;;;;5221737;22;20504;-84
2021/10/30 08:41:58;;;;;;;9.67;7.80;;;13.60;98.30;;;;;;5225967;22;20425;-84
2021/10/30 08:44:02;;;;;;;9.30;8.17;;;13.60;98.30;;;;;;5225757;22;20475;-85
2021/10/30 08:46:06;;;;;;;11.00;9.03;;;13.50;98.30;;;;;;5225071;22;20528;-85
2021/10/30 08:48:14;;;;;;;9.90;8.33;;;13.60;98.30;;;;;;5225285;22;20421;-85
2021/10/30 08:50:18;;;;;;;11.73;8.40;;;13.60;98.30;;;;;;5216997;22;20441;-84
2021/10/30 08:52:21;;;;;;;9.27;8.37;;;13.70;98.30;;;;;;5225730;22;20463;-85
2021/10/30 08:54:24;;;;;;;11.90;9.30;;;13.80;98.30;;;;;;5216794;22;20426;-85
2021/10/30 08:56:27;;;;;;;10.07;8.50;;;14.10;98.30;;;;;;5217216;22;20418;-85
2021/10/30 08:58:31;;;;;;;9.90;7.90;;;14.20;98.30;;;;;;5216493;22;20428;-85
2021/10/30 09:00:39;;;;;;;12.63;8.77;;;14.30;98.30;;;;;;5224891;22;20425;-84
2021/10/30 09:02:44;;;;;;;9.40;7.23;;;14.40;98.30;;;;;;5225125;22;20415;-84
2021/10/30 09:05:08;;;;;;;9.67;6.60;;;14.60;98.30;;;;;;5225512;22;20524;-84
2021/10/30 09:07:15;;;;;;;7.80;7.07;;;14.50;98.30;;;;;;5225510;22;20513;-85
2021/10/30 09:09:19;;;;;;;8.30;7.17;;;14.40;98.30;;;;;;5225741;22;20963;-85
2021/10/30 09:11:27;;;;;;;6.93;6.27;;;14.40;98.30;;;;;;5226067;22;20922;-85
2021/10/30 09:13:32;;;;;;;7.57;6.87;;;14.40;98.30;;;;;;5218414;22;20472;-84
2021/10/30 09:15:37;;;;;;;8.73;6.67;;;14.30;98.30;;;;;;5217634;22;20447;-85
2021/10/30 09:17:41;;;;;;;7.13;6.37;;;14.30;98.30;;;;;;5225721;22;20455;-85
2021/10/30 09:19:48;;;;;;;11.60;7.07;;;14.30;98.30;;;;;;5225848;22;20450;-85
2021/10/30 09:22:06;;;;;;;8.30;7.20;;;14.40;98.30;;;;;;5216925;22;20418;-85
2021/10/30 09:24:22;;;;;;;8.43;7.30;;;14.30;98.30;;;;;;5225598;22;20506;-85
2021/10/30 09:26:27;;;;;;;7.43;6.50;;;14.30;98.30;;;;;;5225138;22;21142;-84
2021/10/30 09:28:32;;;;;;;8.97;6.50;;;14.10;98.30;;;;;;5225208;22;20459;-84
2021/10/30 09:30:37;;;;;;;13.27;7.40;;;14.10;98.30;;;;;;5217725;22;20434;-83
2021/10/30 09:32:40;;;;;;;8.30;6.40;;;14.10;98.30;;;;;;5217451;22;20423;-84
2021/10/30 09:34:45;;;;;;;6.83;6.17;;;14.00;98.30;;;;;;5217035;22;20528;-86
2021/10/30 09:36:57;;;;;;;12.00;6.30;;;14.00;98.30;;;;;;5216560;22;20427;-85
2021/10/30 09:39:03;;;;;;;8.20;6.17;;;13.90;98.30;;;;;;5225415;22;20427;-86
2021/10/30 09:41:36;;;;;;;10.37;6.80;;;13.90;98.30;;;;;;5225885;22;20423;-86
2021/10/30 09:43:54;;;;;;;9.33;6.37;;;13.90;98.30;;;;;;5226336;22;20758;-87
2021/10/30 09:46:05;;;;;;;7.63;6.60;;;13.90;98.30;;;;;;5236163;22;20439;-86
2021/10/30 09:48:11;;;;;;;7.67;5.73;;;13.90;98.30;;;;;;5224966;22;20414;-86
2021/10/30 09:50:23;;;;;;;8.63;6.00;;;13.90;98.30;;;;;;5220020;22;20428;-86
2021/10/30 09:52:30;;;;;;;7.60;6.30;;;13.90;98.30;;;;;;5219004;22;20428;-86
2021/10/30 09:54:41;;;;;;;9.30;6.90;;;13.90;98.30;;;;;;5228104;22;20923;-85
2021/10/30 09:56:47;;;;;;;9.60;6.03;;;13.90;98.30;;;;;;5227546;22;20422;-86
2021/10/30 09:58:55;;;;;;;9.20;6.30;;;14.00;98.30;;;;;;5227364;22;20401;-85
2021/10/30 10:01:00;;;;;;;7.47;6.67;;;14.10;98.30;;;;;;5218110;22;20419;-82
2021/10/30 10:03:13;;;;;;;8.27;6.30;;;14.10;98.30;;;;;;5226524;22;20425;-83
2021/10/30 10:05:18;;;;;;;6.77;5.90;;;14.20;98.30;;;;;;5218245;22;20448;-83
2021/10/30 10:07:33;;;;;;;8.80;6.13;;;14.40;98.30;;;;;;5218474;22;20411;-83
2021/10/30 13:18:46;;;;;;;12.43;10.60;;;14.80;98.30;;;;;;5166408;22;20464;-84
2021/10/30 16:12:27;;;;;;;30.50;23.60;;;12.90;98.30;;;;;;5131891;22;20967;-86
